Time;durP1;ratioP1;P1;durP2;ratioP2;P2;SDS_P1;SDS_P2;PMS_P1;PMS_P2;Temp;Humidity;BMP_temperature;BMP_pressure;BME280_temperature;BME280_humidity;BME280_pressure;Samples;Min_cycle;Max_cycle;Signal;HPM_P1;HPM_P2
2024/04/10 00:01:48;;;;;;;6.93;0.98;;;;;;;7.86;75.92;101218.19;5225337;27;20409;-62
2024/04/10 00:04:16;;;;;;;7.07;2.13;;;;;;;7.84;75.63;101220.47;5209393;27;20521;-62
2024/04/10 00:06:44;;;;;;;3.78;0.85;;;;;;;7.84;75.54;101219.66;5225458;27;20038;-62
2024/04/10 00:09:11;;;;;;;3.78;1.17;;;;;;;7.81;75.77;101221.09;5222845;27;20458;-62
2024/04/10 00:11:38;;;;;;;7.15;1.15;;;;;;;7.78;76.36;101227.22;5208894;27;20529;-62
2024/04/10 00:14:07;;;;;;;9.27;1.00;;;;;;;7.75;75.93;101222.38;5228966;27;20354;-62
2024/04/10 00:16:35;;;;;;;6.75;1.20;;;;;;;7.73;76.32;101216.34;5231588;27;20004;-62
2024/04/10 00:19:04;;;;;;;5.78;1.10;;;;;;;7.71;76.42;101210.34;5237747;27;20003;-62
2024/04/10 00:21:35;;;;;;;6.15;0.95;;;;;;;7.68;76.88;101205.44;5207691;27;20078;-62
2024/04/10 00:24:03;;;;;;;8.03;1.30;;;;;;;7.64;76.78;101198.97;5207568;27;20018;-62
2024/04/10 00:26:31;;;;;;;4.57;1.20;;;;;;;7.64;76.80;101187.94;5206843;27;20086;-62
2024/04/10 00:28:58;;;;;;;4.65;1.10;;;;;;;7.62;76.67;101181.94;5207705;27;20087;-62
2024/04/10 00:31:26;;;;;;;5.70;1.38;;;;;;;7.62;76.78;101201.22;5207538;27;20094;-62
2024/04/10 00:33:54;;;;;;;5.32;1.23;;;;;;;7.59;77.15;101201.84;5207602;27;20026;-62
2024/04/10 00:36:22;;;;;;;4.68;1.00;;;;;;;7.62;77.07;101194.88;5207529;27;20012;-62
2024/04/10 00:38:49;;;;;;;10.65;2.63;;;;;;;7.56;77.15;101191.44;5207494;27;20012;-62
2024/04/10 00:41:16;;;;;;;7.18;1.25;;;;;;;7.49;77.34;101182.00;5206938;27;20018;-62
2024/04/10 00:43:44;;;;;;;4.32;1.15;;;;;;;7.48;77.44;101167.41;5233290;27;20022;-62
2024/04/10 00:46:17;;;;;;;4.10;1.23;;;;;;;7.47;77.64;101168.53;5218064;27;20067;-62
2024/04/10 00:48:46;;;;;;;2.55;0.88;;;;;;;7.46;77.87;101155.91;5219935;27;20051;-62
2024/04/10 00:51:22;;;;;;;4.00;1.17;;;;;;;7.44;77.61;101160.88;5207333;27;20022;-62
2024/04/10 00:53:50;;;;;;;3.60;1.17;;;;;;;7.44;77.73;101149.06;5206947;27;20008;-62
2024/04/10 00:56:18;;;;;;;4.45;1.38;;;;;;;7.41;77.50;101156.03;5213828;27;20019;-62
2024/04/10 00:58:50;;;;;;;6.57;1.08;;;;;;;7.40;77.70;101159.06;5226288;27;20026;-62
2024/04/10 01:01:19;;;;;;;6.00;1.10;;;;;;;7.35;77.90;101146.25;5207903;27;20455;-62
2024/04/10 01:03:46;;;;;;;5.60;1.20;;;;;;;7.34;78.01;101147.38;5224795;27;20004;-62
2024/04/10 01:06:14;;;;;;;5.03;1.15;;;;;;;7.33;77.83;101148.53;5200345;27;20008;-62
2024/04/10 01:08:41;;;;;;;8.20;1.13;;;;;;;7.34;78.20;101139.09;5223673;27;20572;-62
2024/04/10 01:11:10;;;;;;;3.47;0.90;;;;;;;7.35;78.56;101136.06;5239115;27;20339;-62
2024/04/10 01:13:38;;;;;;;2.08;1.00;;;;;;;7.38;78.00;101142.88;5239087;27;20014;-62
2024/04/10 01:16:06;;;;;;;6.25;1.52;;;;;;;7.35;78.23;101149.00;5239087;27;20007;-62
2024/04/10 01:18:33;;;;;;;5.53;1.83;;;;;;;7.35;78.57;101149.00;5238615;27;20434;-62
2024/04/10 01:21:01;;;;;;;3.40;1.30;;;;;;;7.37;78.41;101149.50;5239676;27;20906;-62
2024/04/10 01:23:28;;;;;;;6.63;1.17;;;;;;;7.39;78.65;101158.25;5239542;27;20047;-62
2024/04/10 01:25:55;;;;;;;6.75;1.23;;;;;;;7.40;78.70;101157.16;5239902;27;20412;-62
2024/04/10 01:28:23;;;;;;;3.10;0.98;;;;;;;7.40;78.63;101170.09;5239265;27;20003;-62
2024/04/10 01:30:51;;;;;;;5.90;1.83;;;;;;;7.40;78.62;101168.16;5239795;27;19999;-62
2024/04/10 01:33:18;;;;;;;7.28;2.10;;;;;;;7.40;78.91;101159.91;5222734;27;20086;-62
2024/04/10 01:35:46;;;;;;;4.85;1.70;;;;;;;7.41;78.99;101157.97;5206779;27;20023;-62
2024/04/10 01:38:14;;;;;;;5.07;1.40;;;;;;;7.40;78.91;101157.16;5228200;27;20474;-62
2024/04/10 01:40:42;;;;;;;12.68;1.67;;;;;;;7.41;78.91;101158.78;5215619;27;20395;-62
2024/04/10 01:43:09;;;;;;;2.05;1.48;;;;;;;7.43;79.05;101152.94;5231818;27;20022;-62
2024/04/10 01:45:38;;;;;;;6.15;1.60;;;;;;;7.45;79.37;101151.50;5206059;27;20026;-62
2024/04/10 01:48:05;;;;;;;2.88;0.98;;;;;;;7.47;79.22;101151.16;5205798;27;20374;-62
2024/04/10 01:50:33;;;;;;;5.55;1.30;;;;;;;7.46;79.13;101142.13;5205486;27;20334;-62
2024/04/10 01:53:01;;;;;;;5.93;1.40;;;;;;;7.49;79.41;101140.69;5205613;27;20012;-62
2024/04/10 01:55:28;;;;;;;7.25;1.15;;;;;;;7.51;79.49;101130.16;5206572;27;20090;-62
2024/04/10 01:57:55;;;;;;;6.13;1.10;;;;;;;7.51;79.69;101127.41;5205850;27;20036;-62
2024/04/10 02:00:25;;;;;;;3.70;0.90;;;;;;;7.50;79.46;101132.09;5205973;27;20342;-62
2024/04/10 02:02:53;;;;;;;8.05;1.45;;;;;;;7.49;79.57;101137.91;5205416;27;20016;-62
2024/04/10 02:05:21;;;;;;;5.47;0.93;;;;;;;7.47;79.76;101135.47;5205600;27;20479;-62
2024/04/10 02:07:48;;;;;;;2.95;1.02;;;;;;;7.48;79.67;101120.56;5205902;27;20004;-62
2024/04/10 02:10:16;;;;;;;4.50;1.35;;;;;;;7.51;79.74;101119.13;5205831;27;20020;-62
2024/04/10 02:12:43;;;;;;;10.50;1.50;;;;;;;7.50;79.77;101115.56;5205480;27;20332;-62
2024/04/10 02:15:10;;;;;;;5.03;1.70;;;;;;;7.49;79.82;101111.19;5208474;27;20046;-62
2024/04/10 02:17:38;;;;;;;6.90;1.30;;;;;;;7.50;79.85;101117.50;5217909;27;20458;-62
2024/04/10 02:20:07;;;;;;;3.60;1.27;;;;;;;7.50;79.91;101110.03;5228838;27;20010;-62
2024/04/10 02:22:34;;;;;;;10.65;2.10;;;;;;;7.46;80.01;101111.81;5230031;27;20565;-62
2024/04/10 02:25:02;;;;;;;4.38;1.48;;;;;;;7.49;80.04;101113.13;5205772;27;20487;-62
2024/04/10 02:27:30;;;;;;;5.53;1.30;;;;;;;7.50;79.93;101109.22;5207331;27;20050;-62
2024/04/10 02:29:57;;;;;;;16.73;1.50;;;;;;;7.51;80.11;101089.66;5222218;27;20003;-62
2024/04/10 02:32:24;;;;;;;4.68;1.00;;;;;;;7.52;79.68;101091.25;5216408;27;20026;-62
2024/04/10 02:34:53;;;;;;;7.75;1.60;;;;;;;7.54;79.75;101082.69;5193465;27;20395;-62
2024/04/10 02:37:20;;;;;;;2.95;0.98;;;;;;;7.54;79.82;101089.00;5221743;27;20023;-62
2024/04/10 02:39:48;;;;;;;4.25;1.10;;;;;;;7.53;80.09;101090.13;5208343;27;20019;-62
2024/04/10 02:42:15;;;;;;;1.77;1.10;;;;;;;7.52;80.08;101095.97;5205538;27;21327;-62
2024/04/10 02:44:50;;;;;;;5.95;0.95;;;;;;;7.53;80.27;101092.88;5200751;27;20012;-62
2024/04/10 02:47:22;;;;;;;2.97;0.77;;;;;;;7.58;80.30;101095.50;5232524;27;20082;-62
2024/04/10 02:49:49;;;;;;;12.83;1.27;;;;;;;7.61;80.34;101094.88;5230832;27;20003;-62
2024/04/10 02:52:18;;;;;;;4.13;1.38;;;;;;;7.64;80.43;101091.50;5214276;27;20027;-63
2024/04/10 02:54:45;;;;;;;4.30;1.35;;;;;;;7.69;80.67;101087.78;5226887;27;20467;-62
2024/04/10 02:57:12;;;;;;;3.78;1.48;;;;;;;7.69;80.40;101083.06;5206404;27;20008;-62
2024/04/10 02:59:40;;;;;;;3.55;0.80;;;;;;;7.70;80.54;101084.72;5217336;27;20472;-62
2024/04/10 03:02:08;;;;;;;7.00;1.23;;;;;;;7.72;80.41;101068.66;5312105;22;20011;-62
2024/04/10 03:04:36;;;;;;;5.72;0.60;;;;;;;7.74;80.58;101071.91;5235466;27;20011;-62
2024/04/10 03:07:04;;;;;;;7.10;2.13;;;;;;;7.75;80.65;101068.03;5222897;27;20411;-62
2024/04/10 03:09:31;;;;;;;7.60;1.10;;;;;;;7.77;80.48;101068.53;5225399;27;20457;-62
2024/04/10 03:11:59;;;;;;;1.65;0.63;;;;;;;7.79;80.99;101063.50;5211435;27;20015;-62
2024/04/10 03:14:27;;;;;;;5.53;0.68;;;;;;;7.82;81.06;101062.88;5225809;27;20087;-62
2024/04/10 03:16:54;;;;;;;7.55;1.13;;;;;;;7.85;81.14;101061.41;5219368;27;20004;-62
2024/04/10 03:19:22;;;;;;;3.00;0.65;;;;;;;7.87;81.21;101068.22;5224712;27;20008;-62
2024/04/10 03:21:49;;;;;;;4.03;1.42;;;;;;;7.92;80.90;101056.25;5224695;27;20089;-66
2024/04/10 03:24:17;;;;;;;2.47;0.70;;;;;;;7.94;80.85;101054.00;5233538;27;20003;-62
2024/04/10 03:26:44;;;;;;;5.55;1.00;;;;;;;7.97;81.40;101051.38;5220320;27;20509;-62
2024/04/10 03:29:11;;;;;;;3.25;1.63;;;;;;;7.99;81.23;101054.63;5212305;27;20026;-62
2024/04/10 03:31:39;;;;;;;6.35;0.80;;;;;;;8.01;81.06;101053.50;5211307;27;20026;-62
2024/04/10 03:34:07;;;;;;;9.98;0.98;;;;;;;8.05;81.51;101049.00;5231766;27;20011;-62
2024/04/10 03:36:34;;;;;;;8.63;2.55;;;;;;;8.05;81.71;101049.78;5232520;27;20007;-62
2024/04/10 03:39:02;;;;;;;8.20;1.10;;;;;;;8.06;81.83;101043.16;5220427;27;20067;-62
2024/04/10 03:41:29;;;;;;;3.20;1.13;;;;;;;8.07;81.71;101038.44;5221207;27;20031;-62
2024/04/10 03:43:57;;;;;;;12.05;1.00;;;;;;;8.06;82.17;101032.13;5215737;27;20026;-62
2024/04/10 03:46:24;;;;;;;9.88;1.55;;;;;;;8.07;82.28;101031.00;5224690;27;20022;-62
2024/04/10 03:48:52;;;;;;;4.63;1.48;;;;;;;8.09;82.60;101030.66;5240207;27;20060;-62
2024/04/10 03:51:19;;;;;;;5.93;1.40;;;;;;;8.10;82.37;101018.50;5232552;27;20007;-62
2024/04/10 03:53:47;;;;;;;11.15;1.15;;;;;;;8.11;82.96;101020.13;5212624;27;20475;-62
2024/04/10 03:56:15;;;;;;;2.70;0.93;;;;;;;8.11;82.73;101011.84;5230936;27;20007;-62
2024/04/10 03:58:42;;;;;;;8.35;1.40;;;;;;;8.12;82.72;101021.75;5206555;27;20035;-62
2024/04/10 04:01:10;;;;;;;11.68;1.50;;;;;;;8.12;83.17;101010.72;5216482;27;20007;-62
2024/04/10 04:03:38;;;;;;;5.13;1.48;;;;;;;8.12;83.12;101013.47;5206666;27;20015;-60
2024/04/10 04:06:06;;;;;;;12.57;3.53;;;;;;;8.12;83.38;101006.03;5212721;27;20082;-64
2024/04/10 04:08:33;;;;;;;4.85;1.08;;;;;;;8.13;83.41;101004.88;5208931;27;20007;-63
2024/04/10 04:11:04;;;;;;;3.60;1.00;;;;;;;8.11;83.45;100992.53;5222565;27;20023;-63
2024/04/10 04:13:32;;;;;;;5.47;1.00;;;;;;;8.10;83.56;100979.91;5226867;27;20007;-62
2024/04/10 04:15:59;;;;;;;5.15;0.93;;;;;;;8.11;83.51;100982.31;5227974;27;20019;-62
2024/04/10 04:18:27;;;;;;;5.25;1.10;;;;;;;8.10;84.02;100979.91;5220172;27;20007;-62
2024/04/10 04:20:54;;;;;;;7.75;1.05;;;;;;;8.08;83.93;100971.13;5236619;27;20019;-62
2024/04/10 04:23:22;;;;;;;5.25;1.13;;;;;;;8.08;83.79;100971.13;5219767;27;20019;-62
2024/04/10 04:25:50;;;;;;;7.05;0.98;;;;;;;8.05;83.94;100956.03;5221177;27;20059;-62
2024/04/10 04:28:17;;;;;;;4.93;1.48;;;;;;;8.05;84.21;100950.53;5226634;27;20031;-62
2024/04/10 04:30:48;;;;;;;4.43;1.40;;;;;;;8.04;84.12;100951.66;5231254;27;20007;-62
2024/04/10 04:33:17;;;;;;;9.57;1.45;;;;;;;8.03;84.47;100940.94;5237759;27;20013;-63
2024/04/10 04:35:45;;;;;;;3.88;0.95;;;;;;;8.02;84.50;100928.31;5233299;27;20014;-62
2024/04/10 04:38:12;;;;;;;7.65;1.30;;;;;;;8.01;84.70;100926.69;5231260;27;20019;-63
2024/04/10 04:40:41;;;;;;;13.52;1.75;;;;;;;8.02;84.99;100928.31;5231835;27;20018;-63
2024/04/10 04:43:09;;;;;;;8.02;1.67;;;;;;;7.98;85.00;100920.69;5224700;27;20007;-62
2024/04/10 04:45:38;;;;;;;12.20;1.65;;;;;;;7.98;85.19;100917.94;5220610;27;20020;-62
2024/04/10 04:48:07;;;;;;;6.50;1.70;;;;;;;7.97;85.73;100909.97;5236278;27;20054;-62
2024/04/10 04:50:41;;;;;;;11.43;1.70;;;;;;;7.96;85.90;100903.66;5219107;27;20023;-62
2024/04/10 04:53:10;;;;;;;8.50;1.80;;;;;;;7.94;86.08;100889.38;5218340;27;20468;-62
2024/04/10 04:55:38;;;;;;;6.28;1.50;;;;;;;7.93;86.25;100882.25;5235873;27;20042;-64
2024/04/10 04:58:06;;;;;;;7.25;1.33;;;;;;;7.92;86.62;100872.34;5237997;27;20337;-62
2024/04/10 05:00:34;;;;;;;6.18;1.58;;;;;;;7.90;86.69;100866.34;5214033;27;20055;-62
2024/04/10 05:03:06;;;;;;;9.60;1.38;;;;;;;7.89;86.77;100861.16;5219113;27;20056;-62
2024/04/10 05:05:34;;;;;;;12.18;1.60;;;;;;;7.89;87.18;100858.41;5220783;27;20043;-62
2024/04/10 05:08:02;;;;;;;6.82;1.42;;;;;;;7.88;87.08;100857.63;5205324;27;20043;-62
2024/04/10 05:10:29;;;;;;;16.27;3.28;;;;;;;7.90;87.47;100854.53;5237012;27;20330;-63
2024/04/10 05:12:57;;;;;;;4.70;1.30;;;;;;;7.89;87.81;100841.88;5214589;27;20008;-66
2024/04/10 05:15:25;;;;;;;5.70;2.15;;;;;;;7.92;87.64;100842.03;5204524;27;20516;-63
2024/04/10 05:17:52;;;;;;;4.35;1.95;;;;;;;7.92;87.74;100849.47;5233803;27;20019;-63
2024/04/10 05:20:20;;;;;;;8.82;1.98;;;;;;;7.94;87.99;100850.78;5237287;27;20461;-62
2024/04/10 05:22:47;;;;;;;11.20;2.28;;;;;;;7.95;88.30;100849.66;5230433;27;20303;-63
2024/04/10 05:25:15;;;;;;;9.70;1.50;;;;;;;7.97;88.29;100855.66;5237609;27;20090;-62
2024/04/10 05:27:42;;;;;;;5.18;1.33;;;;;;;7.99;88.69;100853.38;5215484;27;20020;-64
2024/04/10 05:30:12;;;;;;;8.35;1.40;;;;;;;8.03;88.68;100836.19;5211389;27;20058;-62
2024/04/10 05:32:41;;;;;;;8.90;1.33;;;;;;;8.04;88.45;100829.53;5234299;27;20019;-62
2024/04/10 05:35:11;;;;;;;8.15;1.40;;;;;;;8.02;89.30;100824.38;5225332;27;20082;-61
2024/04/10 05:37:39;;;;;;;5.15;1.20;;;;;;;8.03;89.04;100831.47;5214364;27;20023;-61
2024/04/10 05:40:16;;;;;;;8.88;1.48;;;;;;;8.04;89.10;100822.09;5208387;27;20008;-61
2024/04/10 05:42:45;;;;;;;6.38;1.10;;;;;;;8.04;89.71;100808.31;5222365;27;20035;-61
2024/04/10 05:45:14;;;;;;;9.68;1.33;;;;;;;8.04;89.65;100805.53;5214826;27;20019;-61
2024/04/10 05:47:47;;;;;;;13.23;1.70;;;;;;;8.05;90.10;100798.09;5205927;27;20026;-61
2024/04/10 05:50:15;;;;;;;11.23;1.90;;;;;;;8.05;90.39;100778.78;5229256;27;20060;-62
2024/04/10 05:52:43;;;;;;;11.32;1.75;;;;;;;8.04;90.89;100760.63;5227859;27;20026;-62
2024/04/10 05:55:11;;;;;;;17.65;5.75;;;;;;;8.04;91.13;100752.34;5229576;27;20063;-62
2024/04/10 05:57:39;;;;;;;20.85;6.97;;;;;;;8.04;91.69;100749.59;5214937;27;20086;-62
2024/04/10 06:00:09;;;;;;;24.17;6.93;;;;;;;8.05;91.94;100729.16;5234586;27;20106;-62
2024/04/10 06:02:38;;;;;;;13.77;2.80;;;;;;;8.02;92.20;100721.53;5218059;27;20012;-61
2024/04/10 06:05:08;;;;;;;10.25;3.40;;;;;;;8.03;92.12;100721.19;5212107;27;20022;-62
2024/04/10 06:07:37;;;;;;;10.27;2.80;;;;;;;8.04;92.76;100727.53;5217794;27;20026;-61
2024/04/10 06:10:05;;;;;;;10.65;2.97;;;;;;;8.05;92.28;100734.69;5214575;27;20008;-61
2024/04/10 06:12:33;;;;;;;3.85;1.75;;;;;;;8.07;92.89;100726.88;5235355;27;20039;-61
2024/04/10 06:15:00;;;;;;;8.50;1.42;;;;;;;8.08;92.89;100720.22;5221176;27;20008;-61
2024/04/10 06:18:44;;;;;;;12.75;2.78;;;;;;;8.09;93.61;100713.56;5477329;25;20129;-59
2024/04/10 06:21:11;;;;;;;6.95;1.67;;;;;;;8.11;93.36;100703.81;5463614;26;20460;-59
2024/04/10 06:23:42;;;;;;;8.25;1.05;;;;;;;8.13;93.44;100698.78;5463922;26;20018;-60
2024/04/10 06:26:09;;;;;;;10.07;1.60;;;;;;;8.15;94.04;100706.75;5464481;26;20018;-59
2024/04/10 06:28:37;;;;;;;8.98;2.25;;;;;;;8.16;94.31;100709.16;5464410;26;20013;-58
2024/04/10 06:31:07;;;;;;;5.40;1.13;;;;;;;8.19;94.75;100718.72;5465522;26;20344;-59
2024/04/10 06:33:35;;;;;;;9.68;1.42;;;;;;;8.21;94.34;100719.19;5458853;26;20021;-59
2024/04/10 06:36:04;;;;;;;4.53;1.20;;;;;;;8.24;94.29;100710.25;5463270;26;20015;-58
2024/04/10 06:38:34;;;;;;;4.10;1.25;;;;;;;8.25;94.43;100717.41;5465225;26;20022;-61
2024/04/10 06:41:03;;;;;;;4.43;1.17;;;;;;;8.27;95.10;100717.91;5446409;26;20003;-59
2024/04/10 06:43:32;;;;;;;10.18;2.83;;;;;;;8.27;94.85;100715.16;5429331;26;20003;-59
2024/04/10 06:46:08;;;;;;;11.60;3.97;;;;;;;8.29;94.93;100713.69;5428004;26;19999;-58
2024/04/10 06:48:36;;;;;;;5.80;1.70;;;;;;;8.30;95.71;100704.28;5430085;26;20039;-57
2024/04/10 06:51:06;;;;;;;7.85;2.90;;;;;;;8.35;95.61;100714.31;5398138;26;20027;-59
2024/04/10 06:53:34;;;;;;;6.28;2.22;;;;;;;8.36;95.69;100704.91;5429838;26;20089;-59
2024/04/10 06:56:04;;;;;;;5.85;2.33;;;;;;;8.39;96.10;100718.03;5442495;26;20007;-61
2024/04/10 06:58:38;;;;;;;8.25;2.33;;;;;;;8.41;95.85;100710.22;5443910;26;20004;-58
2024/04/10 07:01:09;;;;;;;3.42;1.58;;;;;;;8.42;95.96;100718.16;5428930;26;20090;-59
2024/04/10 07:03:41;;;;;;;5.88;1.55;;;;;;;8.45;96.16;100700.13;5429451;26;20095;-56
2024/04/10 07:06:10;;;;;;;5.05;1.73;;;;;;;8.45;96.10;100684.41;5429477;26;20011;-56
2024/04/10 07:08:42;;;;;;;7.10;3.35;;;;;;;8.46;96.38;100680.50;5459381;26;20003;-64
2024/04/10 07:11:16;;;;;;;6.60;3.15;;;;;;;8.47;96.84;100693.13;5441625;26;20019;-60
2024/04/10 07:13:52;;;;;;;3.53;1.00;;;;;;;8.49;97.04;100687.31;5443295;26;20056;-58
2024/04/10 07:16:26;;;;;;;6.50;0.88;;;;;;;8.52;96.94;100697.69;5458012;26;20068;-61
2024/04/10 07:18:56;;;;;;;1.63;0.88;;;;;;;8.52;97.38;100695.72;5464125;26;19999;-58
2024/04/10 07:21:25;;;;;;;3.33;0.35;;;;;;;8.54;97.69;100698.16;5446221;26;20003;-63
2024/04/10 07:23:52;;;;;;;5.10;0.68;;;;;;;8.54;97.41;100690.69;5463085;26;20007;-54
2024/04/10 07:26:27;;;;;;;1.73;0.60;;;;;;;8.55;97.90;100683.22;5462914;26;20083;-58
2024/04/10 07:28:56;;;;;;;3.90;0.80;;;;;;;8.55;97.71;100672.19;5453308;26;20010;-58
2024/04/10 07:31:31;;;;;;;6.60;1.08;;;;;;;8.56;97.87;100679.31;5415204;26;20017;-57
2024/04/10 07:34:01;;;;;;;6.38;0.98;;;;;;;8.57;98.82;100664.38;5413878;26;20003;-56
2024/04/10 07:36:33;;;;;;;3.90;0.40;;;;;;;8.57;98.53;100653.34;5392274;26;20003;-58
2024/04/10 07:39:07;;;;;;;3.45;0.60;;;;;;;8.58;99.18;100643.91;5428096;26;20003;-58
2024/04/10 07:41:38;;;;;;;1.58;0.60;;;;;;;8.60;99.08;100635.31;5448556;26;20087;-58
2024/04/10 07:44:07;;;;;;;8.50;0.77;;;;;;;8.61;99.41;100636.91;5447756;26;20015;-55
2024/04/10 07:46:35;;;;;;;3.10;0.77;;;;;;;8.63;99.67;100651.97;5447026;26;20015;-58
2024/04/10 07:49:03;;;;;;;5.03;1.33;;;;;;;8.67;99.52;100647.44;5447707;26;20018;-59
2024/04/10 07:51:31;;;;;;;3.42;0.93;;;;;;;8.68;99.83;100651.81;5447399;26;20003;-56
2024/04/10 07:53:58;;;;;;;4.18;1.58;;;;;;;8.70;100.00;100635.72;5415112;26;20017;-56
2024/04/10 07:56:26;;;;;;;1.83;0.90;;;;;;;8.72;99.96;100636.19;5447260;26;20003;-55
2024/04/10 07:58:54;;;;;;;3.10;1.02;;;;;;;8.74;100.00;100644.13;5435883;26;20018;-55
2024/04/10 08:01:22;;;;;;;7.97;0.77;;;;;;;8.75;100.00;100638.28;5445694;26;20794;-55
2024/04/10 08:03:51;;;;;;;1.33;1.00;;;;;;;8.78;100.00;100642.31;5415768;26;20014;-57
2024/04/10 08:06:19;;;;;;;1.80;0.40;;;;;;;8.79;100.00;100643.94;5444074;26;20462;-57
2024/04/10 08:08:47;;;;;;;3.92;0.57;;;;;;;8.80;100.00;100629.00;5416483;26;20064;-57
2024/04/10 08:11:17;;;;;;;3.40;0.47;;;;;;;8.81;100.00;100636.94;5435326;26;20019;-57
2024/04/10 08:13:45;;;;;;;5.07;0.70;;;;;;;8.83;100.00;100636.59;5445590;26;20091;-58
2024/04/10 08:16:15;;;;;;;1.90;1.30;;;;;;;8.85;100.00;100626.84;5433316;26;20015;-60
2024/04/10 08:18:43;;;;;;;2.17;0.25;;;;;;;8.89;100.00;100626.97;5411650;26;20003;-58
2024/04/10 08:21:13;;;;;;;5.72;0.43;;;;;;;8.90;100.00;100617.53;5411870;26;20084;-56
2024/04/10 08:23:44;;;;;;;3.17;0.20;;;;;;;8.93;100.00;100623.19;5416185;26;20085;-56
2024/04/10 08:26:16;;;;;;;1.73;0.30;;;;;;;8.97;100.00;100612.31;5412668;26;20007;-56
2024/04/10 08:28:48;;;;;;;4.47;0.60;;;;;;;9.00;100.00;100606.09;5428834;26;20007;-58
2024/04/10 08:31:22;;;;;;;4.07;0.57;;;;;;;9.02;100.00;100593.56;5441910;26;20015;-58
2024/04/10 08:33:52;;;;;;;1.70;0.60;;;;;;;9.05;100.00;100595.63;5417647;26;20050;-58
2024/04/10 08:36:23;;;;;;;3.38;0.47;;;;;;;9.06;100.00;100586.22;5433265;26;20019;-59
2024/04/10 08:38:52;;;;;;;1.70;0.20;;;;;;;9.09;100.00;100577.25;5415748;26;20022;-58
2024/04/10 08:41:21;;;;;;;1.85;0.13;;;;;;;9.11;100.00;100576.91;5434184;26;20018;-55
2024/04/10 08:43:52;;;;;;;5.63;0.50;;;;;;;9.14;100.00;100566.00;5436561;26;20017;-57
2024/04/10 08:46:21;;;;;;;1.63;0.40;;;;;;;9.18;100.00;100553.13;5418779;26;20011;-59
2024/04/10 08:48:52;;;;;;;6.18;0.75;;;;;;;9.23;100.00;100537.47;5432785;26;20015;-56
2024/04/10 08:51:22;;;;;;;0.35;0.10;;;;;;;9.30;100.00;100554.31;5413796;26;20013;-58
2024/04/10 08:53:54;;;;;;;2.70;0.30;;;;;;;9.34;100.00;100556.06;5424353;26;20018;-58
2024/04/10 08:56:21;;;;;;;3.28;0.30;;;;;;;9.39;100.00;100555.03;5435601;26;20068;-58
2024/04/10 08:58:49;;;;;;;11.30;1.63;;;;;;;9.44;100.00;100541.00;5426135;26;20015;-58
2024/04/10 09:01:27;;;;;;;1.75;0.55;;;;;;;9.49;100.00;100547.09;5429289;26;20007;-58
2024/04/10 09:03:55;;;;;;;2.63;0.55;;;;;;;9.56;100.00;100552.88;5434088;26;20415;-55
2024/04/10 09:06:23;;;;;;;3.13;0.25;;;;;;;9.64;100.00;100545.63;5387905;26;19999;-57
2024/04/10 09:08:58;;;;;;;2.40;0.50;;;;;;;9.70;100.00;100552.53;5434197;26;20007;-57
2024/04/10 09:11:26;;;;;;;1.50;0.57;;;;;;;9.76;100.00;100551.19;5423575;26;20009;-56
2024/04/10 09:14:04;;;;;;;1.55;0.20;;;;;;;9.85;100.00;100545.53;5413794;26;20035;-56
2024/04/10 09:16:34;;;;;;;0.40;0.20;;;;;;;9.90;100.00;100561.91;5418469;26;20016;-55
2024/04/10 09:19:18;;;;;;;0.88;0.28;;;;;;;9.93;100.00;100567.53;5436766;26;20472;-56
2024/04/10 09:21:58;;;;;;;0.55;0.47;;;;;;;9.98;100.00;100560.97;5415745;26;20095;-56
2024/04/10 09:24:30;;;;;;;1.95;0.60;;;;;;;10.03;100.00;100561.56;5440664;26;20014;-58
2024/04/10 09:26:59;;;;;;;2.35;0.52;;;;;;;10.10;100.00;100560.97;5432770;26;20449;-59
2024/04/10 09:29:30;;;;;;;4.43;1.00;;;;;;;10.17;100.00;100556.50;5427611;26;20056;-55
2024/04/10 09:32:04;;;;;;;1.67;0.60;;;;;;;10.28;100.00;100545.75;5442281;26;20325;-59
2024/04/10 09:34:34;;;;;;;0.95;0.52;;;;;;;10.40;100.00;100538.25;5432362;26;20014;-58
2024/04/10 09:37:05;;;;;;;2.25;1.25;;;;;;;10.55;100.00;100519.31;5425601;26;20008;-56
2024/04/10 09:39:33;;;;;;;0.55;0.40;;;;;;;10.68;100.00;100515.34;5435526;26;20484;-57
2024/04/10 09:42:08;;;;;;;0.20;0.20;;;;;;;10.83;100.00;100500.75;5431803;26;20018;-59
2024/04/10 09:44:37;;;;;;;1.55;0.20;;;;;;;11.01;100.00;100518.69;5419810;26;20456;-60
2024/04/10 09:47:08;;;;;;;0.95;0.40;;;;;;;11.15;100.00;100530.13;5431220;26;20003;-58
2024/04/10 09:49:42;;;;;;;0.38;0.30;;;;;;;11.26;100.00;100527.66;5398601;26;20007;-58
2024/04/10 09:52:13;;;;;;;0.47;0.20;;;;;;;11.38;100.00;100533.97;5427211;26;20022;-58
2024/04/10 09:54:40;;;;;;;0.95;0.22;;;;;;;11.48;100.00;100538.97;5436332;26;20002;-56
2024/04/10 09:57:13;;;;;;;0.63;0.40;;;;;;;11.59;100.00;100539.25;5446955;26;20006;-59
2024/04/10 09:59:42;;;;;;;0.15;0.10;;;;;;;11.68;100.00;100547.38;5411371;26;20018;-59
2024/04/10 10:02:19;;;;;;;0.20;0.20;;;;;;;11.73;100.00;100556.25;5395174;26;20003;-58
2024/04/10 10:04:47;;;;;;;3.60;0.43;;;;;;;11.79;100.00;100542.94;5424156;26;20003;-57
2024/04/10 10:07:24;;;;;;;3.40;0.52;;;;;;;11.87;100.00;100544.72;5437826;26;20453;-59
2024/04/10 10:10:05;;;;;;;0.60;0.30;;;;;;;11.92;100.00;100553.59;5432273;26;20322;-59
2024/04/10 10:12:33;;;;;;;0.55;0.20;;;;;;;11.96;100.00;100559.22;5417470;26;20007;-59
2024/04/10 10:15:10;;;;;;;1.85;0.32;;;;;;;11.99;100.00;100558.50;5439837;26;20007;-60
2024/04/10 10:17:40;;;;;;;0.30;0.30;;;;;;;12.04;100.00;100555.47;5416054;26;20012;-59
2024/04/10 10:20:23;;;;;;;0.45;0.22;;;;;;;12.07;100.00;100560.31;5420474;26;20015;-57
2024/04/10 10:23:02;;;;;;;0.98;0.30;;;;;;;12.12;100.00;100557.25;5400195;26;20341;-59
2024/04/10 10:25:30;;;;;;;0.60;0.30;;;;;;;12.13;100.00;100543.00;5422337;26;20518;-59
2024/04/10 10:28:08;;;;;;;0.43;0.22;;;;;;;12.21;100.00;100538.41;5425836;26;20003;-60
2024/04/10 10:30:36;;;;;;;1.65;0.20;;;;;;;12.29;100.00;100551.28;5412799;26;20004;-59
2024/04/10 10:33:07;;;;;;;0.88;0.30;;;;;;;12.36;100.00;100551.47;5410370;26;20008;-60
2024/04/10 10:35:35;;;;;;;2.43;0.20;;;;;;;12.45;100.00;100540.16;5418025;26;20003;-57
2024/04/10 10:38:06;;;;;;;0.47;0.47;;;;;;;12.62;100.00;100548.91;5438459;26;20007;-59
2024/04/10 10:40:35;;;;;;;1.13;0.20;;;;;;;12.85;100.00;100554.53;5431059;26;20710;-60
2024/04/10 10:43:04;;;;;;;1.33;0.20;;;;;;;13.03;100.00;100552.09;5427037;26;19999;-59
2024/04/10 10:45:33;;;;;;;0.10;0.10;;;;;;;13.09;100.00;100550.69;5417136;26;20007;-59
2024/04/10 10:48:04;;;;;;;0.73;0.35;;;;;;;13.09;100.00;100557.06;5409887;26;20003;-61
2024/04/10 10:50:33;;;;;;;3.30;0.55;;;;;;;13.12;100.00;100555.50;5410999;26;20085;-61
2024/04/10 10:53:01;;;;;;;1.90;0.30;;;;;;;13.15;100.00;100561.16;5420216;26;20019;-60
2024/04/10 10:55:29;;;;;;;2.08;0.20;;;;;;;13.16;100.00;100556.38;5408012;26;20035;-58
2024/04/10 10:58:03;;;;;;;2.95;0.30;;;;;;;13.21;100.00;100556.09;5411715;26;20079;-59
2024/04/10 11:00:33;;;;;;;0.45;0.20;;;;;;;13.27;100.00;100551.81;5428665;26;20008;-58
2024/04/10 11:03:10;;;;;;;1.23;0.22;;;;;;;13.39;100.00;100554.47;5421047;26;20078;-59
2024/04/10 11:05:50;;;;;;;0.50;0.20;;;;;;;13.49;100.00;100576.09;5408036;26;20085;-59
2024/04/10 11:08:22;;;;;;;1.23;0.20;;;;;;;13.56;100.00;100580.97;5422713;26;20009;-58
2024/04/10 11:10:52;;;;;;;1.02;0.55;;;;;;;13.65;100.00;100578.78;5414149;26;20003;-59
2024/04/10 11:13:20;;;;;;;0.73;0.30;;;;;;;13.70;100.00;100576.50;5428394;26;22282;-58
2024/04/10 11:15:50;;;;;;;2.47;0.75;;;;;;;13.73;100.00;100586.88;5431820;26;20007;-56
2024/04/10 11:18:19;;;;;;;1.02;0.25;;;;;;;13.74;100.00;100569.00;5424706;26;20026;-60
2024/04/10 11:20:48;;;;;;;0.90;0.40;;;;;;;13.72;100.00;100582.47;5446026;26;20013;-57
2024/04/10 11:23:16;;;;;;;1.70;0.30;;;;;;;13.73;100.00;100566.59;5439261;26;20463;-58
2024/04/10 11:25:44;;;;;;;2.55;0.40;;;;;;;13.73;100.00;100553.50;5444658;26;20007;-57
2024/04/10 11:28:12;;;;;;;1.27;0.30;;;;;;;13.74;100.00;100555.09;5440972;26;20003;-58
2024/04/10 11:30:41;;;;;;;0.98;0.40;;;;;;;13.78;100.00;100550.41;5434674;26;20002;-57
2024/04/10 11:33:08;;;;;;;1.73;0.40;;;;;;;13.80;100.00;100556.38;5432818;26;20013;-58
2024/04/10 11:35:40;;;;;;;1.92;0.22;;;;;;;13.80;100.00;100559.19;5425917;26;20049;-57
2024/04/10 11:38:08;;;;;;;0.47;0.20;;;;;;;13.79;100.00;100563.13;5440246;26;20076;-57
2024/04/10 11:40:35;;;;;;;1.88;0.30;;;;;;;13.79;100.00;100557.56;5428262;26;20457;-59